Terminal Aerodrome Forecast
Issued by NWS

Home | Current Version | Previous Version | Text Only | Print | Product List | Glossary On
Versions: 1 2 3 4 5 6 7 8 9 10 11 12 13
549
FTUS43 KMQT 242324
TAFSAW
TAF
KSAW 242324Z 2500/2524 29005KT P6SM VCSH OVC040
     FM250200 30008KT P6SM VCSH BKN025
     FM250400 30010KT P6SM BKN020
     FM250800 31011KT P6SM BKN030
     FM250900 31011KT P6SM BKN035
     FM251100 32010KT P6SM BKN030
     FM252100 32010KT P6SM BKN035=

USA.gov is the U.S. government's official web portal to all federal, state and local government web resources and services.